createdAt,value
2019-01-21T00:01:50.251Z,97.90
2019-01-21T00:04:19.936Z,98.10
2019-01-21T00:06:49.523Z,98.30
2019-01-21T00:09:20.370Z,98.50
2019-01-21T00:11:51.050Z,98.20
2019-01-21T00:14:20.919Z,98.20
2019-01-21T00:16:50.619Z,98.30
2019-01-21T00:19:20.417Z,98.50
2019-01-21T00:21:50.256Z,98.50
2019-01-21T00:24:19.483Z,98.70
2019-01-21T00:26:49.686Z,98.70
2019-01-21T00:29:18.828Z,98.70
2019-01-21T00:31:53.679Z,98.50
2019-01-21T00:34:25.163Z,98.30
2019-01-21T00:36:54.143Z,98.10
2019-01-21T00:39:23.691Z,98.00
2019-01-21T00:41:54.978Z,98.20
2019-01-21T00:44:24.138Z,98.50
2019-01-21T00:46:53.425Z,99.00
2019-01-21T00:49:23.591Z,99.30
2019-01-21T00:51:53.222Z,99.40
2019-01-21T00:54:22.471Z,99.40
2019-01-21T00:56:52.983Z,99.40
2019-01-21T00:59:24.937Z,99.20
2019-01-21T01:01:54.547Z,99.40
2019-01-21T01:04:23.863Z,99.20
2019-01-21T01:06:53.878Z,99.40
2019-01-21T01:09:23.701Z,99.70
2019-01-21T01:11:53.684Z,99.80
2019-01-21T01:14:26.257Z,99.80
2019-01-21T01:16:56.167Z,99.80
2019-01-21T01:19:25.979Z,99.80
2019-01-21T01:21:55.231Z,99.80
2019-01-21T01:24:24.468Z,99.80
2019-01-21T01:26:53.687Z,99.80
2019-01-21T01:29:22.828Z,99.80
2019-01-21T01:31:52.320Z,99.80
2019-01-21T01:34:21.496Z,99.80
2019-01-21T01:36:51.239Z,99.80
2019-01-21T01:39:20.402Z,99.80
2019-01-21T01:41:49.588Z,99.80
2019-01-21T01:44:19.163Z,99.80
2019-01-21T01:46:48.575Z,99.80
2019-01-21T01:49:18.145Z,99.80
2019-01-21T01:51:47.311Z,99.80
2019-01-21T01:54:16.811Z,99.80
2019-01-21T01:56:46.372Z,99.80
2019-01-21T01:59:15.581Z,99.80
2019-01-21T02:01:45.024Z,99.80
2019-01-21T02:04:14.163Z,99.80
2019-01-21T02:06:43.366Z,99.80
2019-01-21T02:09:12.816Z,99.80
2019-01-21T02:11:42.560Z,99.80
2019-01-21T02:14:11.790Z,99.80
2019-01-21T02:16:41.331Z,99.80
2019-01-21T02:19:10.477Z,99.80
2019-01-21T02:21:41.185Z,99.80
2019-01-21T02:24:12.180Z,99.80
2019-01-21T02:27:04.235Z,99.80
2019-01-21T02:30:09.301Z,99.80
2019-01-21T02:33:19.991Z,99.80
2019-01-21T02:36:15.431Z,99.80
2019-01-21T02:39:05.851Z,99.80
2019-01-21T02:41:43.499Z,99.80
2019-01-21T02:45:14.947Z,99.80
2019-01-21T02:48:05.450Z,99.80
2019-01-21T02:51:10.688Z,99.80
2019-01-21T02:53:59.243Z,99.80
2019-01-21T02:56:59.774Z,99.80
2019-01-21T03:00:16.506Z,99.80
2019-01-21T03:03:09.695Z,99.80
2019-01-21T03:06:03.681Z,99.80
2019-01-21T03:09:22.806Z,99.80
2019-01-21T03:12:27.756Z,99.80
2019-01-21T03:15:19.151Z,99.80
2019-01-21T03:18:29.293Z,99.80
2019-01-21T03:21:35.175Z,99.80
2019-01-21T03:24:42.690Z,99.80
2019-01-21T03:27:43.033Z,99.80
2019-01-21T03:30:32.137Z,99.80
2019-01-21T03:33:28.493Z,99.80
2019-01-21T03:36:53.424Z,99.80
2019-01-21T03:39:59.456Z,99.80
2019-01-21T03:42:50.910Z,99.80
2019-01-21T03:45:54.293Z,99.80
2019-01-21T03:48:48.388Z,99.80
2019-01-21T03:52:11.982Z,99.80
2019-01-21T03:54:52.026Z,99.80
2019-01-21T03:57:51.470Z,99.80
2019-01-21T04:00:32.364Z,99.80
2019-01-21T04:03:37.471Z,99.80
2019-01-21T04:06:43.860Z,99.80
2019-01-21T04:09:42.999Z,99.80
2019-01-21T04:12:49.267Z,99.80
2019-01-21T04:15:38.474Z,99.80
2019-01-21T04:18:27.945Z,99.80
2019-01-21T04:21:22.126Z,99.80
2019-01-21T04:24:21.612Z,99.80
2019-01-21T04:26:58.276Z,99.80
2019-01-21T04:29:47.658Z,99.80
2019-01-21T04:32:43.841Z,99.80
2019-01-21T04:35:45.422Z,99.80
2019-01-21T04:39:00.525Z,99.80
2019-01-21T04:42:07.906Z,99.80
2019-01-21T04:45:22.996Z,99.80
2019-01-21T04:48:13.389Z,99.80
2019-01-21T04:51:07.394Z,99.80
2019-01-21T04:54:23.754Z,99.80
2019-01-21T04:57:22.656Z,99.80
2019-01-21T05:00:45.327Z,99.80
2019-01-21T05:04:00.357Z,99.80
2019-01-21T05:06:53.101Z,99.80
2019-01-21T05:09:57.095Z,99.80
2019-01-21T05:12:41.641Z,99.80
2019-01-21T05:15:50.102Z,99.80
2019-01-21T05:19:02.792Z,99.80
2019-01-21T05:21:56.496Z,99.80
2019-01-21T05:25:05.725Z,99.80
2019-01-21T05:28:18.861Z,99.80
2019-01-21T05:31:23.555Z,99.80
2019-01-21T05:34:33.347Z,99.80
2019-01-21T05:37:43.248Z,99.80
2019-01-21T05:40:57.100Z,99.80
2019-01-21T05:44:22.913Z,99.80
2019-01-21T05:47:36.251Z,99.80
2019-01-21T05:50:40.719Z,99.80
2019-01-21T05:53:47.297Z,99.80
2019-01-21T05:56:53.774Z,99.80
2019-01-21T06:00:03.890Z,99.80
2019-01-21T06:03:26.686Z,99.80
2019-01-21T06:07:00.832Z,99.80
2019-01-21T06:10:05.420Z,99.80
2019-01-21T06:12:58.111Z,99.80
2019-01-21T06:16:01.759Z,99.80
2019-01-21T06:18:57.318Z,99.80
2019-01-21T06:22:08.462Z,99.80
2019-01-21T06:25:04.206Z,99.80
2019-01-21T06:28:38.260Z,99.80
2019-01-21T06:31:42.263Z,99.80
2019-01-21T06:35:04.524Z,99.80
2019-01-21T06:38:09.099Z,99.80
2019-01-21T06:41:25.231Z,99.80
2019-01-21T06:44:23.231Z,99.80
2019-01-21T06:47:32.482Z,99.80
2019-01-21T06:51:03.741Z,99.80
2019-01-21T06:54:09.359Z,99.80
2019-01-21T07:59:14.003Z,99.80
2019-01-21T08:02:23.074Z,99.80
2019-01-21T08:05:25.279Z,99.80
2019-01-21T08:08:07.247Z,99.80
2019-01-21T08:11:25.632Z,99.80
2019-01-21T08:14:35.835Z,99.80
2019-01-21T08:17:43.775Z,99.80
2019-01-21T08:20:47.195Z,99.80
2019-01-21T08:24:11.344Z,99.80
2019-01-21T08:27:02.005Z,99.80
2019-01-21T08:30:18.212Z,99.80
2019-01-21T08:33:20.421Z,99.80
2019-01-21T08:36:08.927Z,99.80
2019-01-21T08:39:20.887Z,99.80
2019-01-21T08:42:22.322Z,99.80
2019-01-21T08:45:33.429Z,99.80
2019-01-21T08:48:46.230Z,99.80
2019-01-21T08:52:02.002Z,99.80
2019-01-21T08:55:18.391Z,99.80
2019-01-21T08:58:40.904Z,99.80
2019-01-21T09:01:21.936Z,99.80
2019-01-21T09:04:24.600Z,99.80
2019-01-21T09:07:32.051Z,99.80
2019-01-21T09:10:48.057Z,99.80
2019-01-21T09:13:40.675Z,99.80
2019-01-21T09:16:41.101Z,99.80
2019-01-21T09:19:42.047Z,99.70
2019-01-21T09:22:34.092Z,99.80
2019-01-21T09:25:29.781Z,99.80
2019-01-21T09:28:27.992Z,99.80
2019-01-21T09:31:39.644Z,99.80
2019-01-21T09:34:39.995Z,99.80
2019-01-21T09:37:56.052Z,99.80
2019-01-21T09:41:08.088Z,99.70
2019-01-21T09:44:17.355Z,99.50
2019-01-21T09:46:47.239Z,99.80
2019-01-21T09:49:16.075Z,99.30
2019-01-21T09:52:06.172Z,99.20
2019-01-21T09:54:40.567Z,98.60
2019-01-21T09:57:15.096Z,98.10
2019-01-21T09:59:44.757Z,97.60
2019-01-21T10:02:15.887Z,97.10
2019-01-21T10:04:54.322Z,97.00
2019-01-21T10:08:07.439Z,97.40
2019-01-21T10:11:13.151Z,97.30
2019-01-21T10:14:18.903Z,97.60
2019-01-21T10:17:25.145Z,97.80
2019-01-21T10:20:02.404Z,97.00
2019-01-21T10:23:27.772Z,97.60
2019-01-21T10:26:33.699Z,97.30
2019-01-21T10:29:36.940Z,95.30
2019-01-21T10:32:51.634Z,95.20
2019-01-21T10:35:37.952Z,95.20
2019-01-21T10:38:45.411Z,94.60
2019-01-21T10:41:42.903Z,95.10
2019-01-21T10:44:50.631Z,94.20
2019-01-21T10:47:44.824Z,94.00
2019-01-21T10:50:27.785Z,93.40
2019-01-21T10:53:34.954Z,92.40
2019-01-21T10:56:37.584Z,92.70
2019-01-21T11:00:00.238Z,92.90
2019-01-21T11:03:28.699Z,93.10
2019-01-21T11:06:33.171Z,92.40
2019-01-21T11:09:33.015Z,92.80
2019-01-21T11:12:45.513Z,92.10
2019-01-21T11:15:49.864Z,90.90
2019-01-21T11:18:43.347Z,89.90
2019-01-21T11:21:41.421Z,88.70
2019-01-21T11:25:03.911Z,87.10
2019-01-21T11:28:16.691Z,74.10
2019-01-21T11:31:36.807Z,64.50
2019-01-21T11:34:56.117Z,59.00
2019-01-21T11:38:03.357Z,59.10
2019-01-21T11:41:10.622Z,57.10
2019-01-21T11:44:21.340Z,59.20
2019-01-21T11:47:36.424Z,56.90
2019-01-21T11:50:47.389Z,59.40
2019-01-21T11:53:43.843Z,57.70
2019-01-21T11:56:28.938Z,58.30
2019-01-21T11:59:38.122Z,58.90
2019-01-21T12:03:00.272Z,57.40
2019-01-21T12:06:04.468Z,58.00
2019-01-21T12:09:22.467Z,61.70
2019-01-21T12:12:24.947Z,67.40
2019-01-21T12:15:40.506Z,71.30
2019-01-21T12:18:55.747Z,73.50
2019-01-21T12:22:09.412Z,65.80
2019-01-21T12:24:46.931Z,55.90
2019-01-21T12:27:54.075Z,48.60
2019-01-21T12:31:15.359Z,46.70
2019-01-21T12:33:56.239Z,46.30
2019-01-21T12:37:11.722Z,43.30
2019-01-21T12:40:25.132Z,43.40
2019-01-21T12:43:30.211Z,42.00
2019-01-21T12:46:39.457Z,40.60
2019-01-21T12:49:49.815Z,42.40
2019-01-21T12:52:49.311Z,42.70
2019-01-21T12:56:03.138Z,42.70
2019-01-21T12:59:03.575Z,42.70
2019-01-21T13:02:15.914Z,41.60
2019-01-21T13:05:12.785Z,41.50
2019-01-21T13:08:00.915Z,42.80
2019-01-21T13:10:45.884Z,43.20
2019-01-21T13:13:43.783Z,42.60
2019-01-21T13:16:40.097Z,41.80
2019-01-21T13:19:38.095Z,41.70
2019-01-21T13:22:51.600Z,44.40
2019-01-21T13:25:57.920Z,45.30
2019-01-21T13:29:01.287Z,50.50
2019-01-21T13:32:14.196Z,53.20
2019-01-21T13:35:19.624Z,50.40
2019-01-21T13:38:38.907Z,45.40
2019-01-21T13:41:43.447Z,48.80
2019-01-21T13:44:56.573Z,51.30
2019-01-21T13:47:52.015Z,51.90
2019-01-21T13:50:30.513Z,51.90
2019-01-21T13:53:43.803Z,54.40
2019-01-21T13:56:41.988Z,57.60
2019-01-21T13:59:52.933Z,60.00
2019-01-21T14:02:37.072Z,60.10
2019-01-21T14:05:37.967Z,59.70
2019-01-21T14:08:50.746Z,59.60
2019-01-21T14:11:36.516Z,56.40
2019-01-21T14:14:28.661Z,53.90
2019-01-21T14:17:15.733Z,53.80
2019-01-21T14:20:28.832Z,55.50
2019-01-21T14:23:29.644Z,54.00
2019-01-21T14:26:24.619Z,54.30
2019-01-21T14:29:37.611Z,56.00
2019-01-21T14:32:32.610Z,58.60
2019-01-21T14:35:19.935Z,57.90
2019-01-21T14:38:48.581Z,55.00
2019-01-21T14:41:54.967Z,56.50
2019-01-21T14:45:01.237Z,63.00
2019-01-21T14:48:26.829Z,67.50
2019-01-21T14:51:32.621Z,71.50
2019-01-21T14:54:30.928Z,73.60
2019-01-21T14:57:59.316Z,75.60
2019-01-21T15:01:00.475Z,76.90
2019-01-21T15:04:19.887Z,78.50
2019-01-21T15:07:07.471Z,79.60
2019-01-21T15:10:19.704Z,80.60
2019-01-21T15:13:30.399Z,81.20
2019-01-21T15:16:31.995Z,82.20
2019-01-21T15:19:39.977Z,82.90
2019-01-21T15:22:45.041Z,83.40
2019-01-21T15:25:55.907Z,84.30
2019-01-21T15:28:59.334Z,84.40
2019-01-21T15:32:24.544Z,84.80
2019-01-21T15:35:20.628Z,85.40
2019-01-21T15:38:21.703Z,85.90
2019-01-21T15:41:12.457Z,86.30
2019-01-21T15:44:03.075Z,87.30
2019-01-21T15:47:15.947Z,88.30
2019-01-21T15:50:21.605Z,88.80
2019-01-21T15:53:07.103Z,89.40
2019-01-21T15:56:15.446Z,90.20
2019-01-21T15:59:13.943Z,90.80
2019-01-21T16:02:14.049Z,91.40
2019-01-21T16:05:01.816Z,92.10
2019-01-21T16:08:06.342Z,92.60
2019-01-21T16:10:58.197Z,93.10
2019-01-21T16:13:58.365Z,93.60
2019-01-21T16:17:11.769Z,93.90
2019-01-21T16:19:48.068Z,94.00
2019-01-21T16:22:53.190Z,94.00
2019-01-21T16:25:39.635Z,94.50
2019-01-21T16:28:45.685Z,94.90
2019-01-21T16:31:42.628Z,95.00
2019-01-21T16:34:41.272Z,95.50
2019-01-21T16:37:35.550Z,95.70
2019-01-21T16:40:49.758Z,95.40
2019-01-21T16:43:19.146Z,95.40
2019-01-21T16:45:48.687Z,95.30
2019-01-21T16:48:17.998Z,95.40
2019-01-21T16:50:48.838Z,95.50
2019-01-21T16:53:18.484Z,95.50
2019-01-21T16:55:47.727Z,95.20
2019-01-21T16:58:16.905Z,95.30
2019-01-21T17:00:46.309Z,95.50
2019-01-21T17:03:15.986Z,95.50
2019-01-21T17:05:45.712Z,95.20
2019-01-21T17:08:14.865Z,95.20
2019-01-21T17:10:44.127Z,95.40
2019-01-21T17:13:13.649Z,95.30
2019-01-21T17:15:42.947Z,95.30
2019-01-21T17:18:12.155Z,95.30
2019-01-21T17:20:41.425Z,95.40
2019-01-21T17:23:10.667Z,95.70
2019-01-21T17:25:39.931Z,95.70
2019-01-21T17:28:09.106Z,96.10
2019-01-21T17:30:38.423Z,96.50
2019-01-21T17:33:07.665Z,96.70
2019-01-21T17:35:37.234Z,96.70
2019-01-21T17:38:06.523Z,96.70
2019-01-21T17:40:35.815Z,96.80
2019-01-21T17:43:05.362Z,96.80
2019-01-21T17:45:34.595Z,96.80
2019-01-21T17:48:03.779Z,96.90
2019-01-21T17:50:33.075Z,96.70
2019-01-21T17:53:02.276Z,97.30
2019-01-21T17:55:31.738Z,97.70
2019-01-21T17:58:01.436Z,98.00
2019-01-21T18:00:30.833Z,98.30
2019-01-21T18:03:00.071Z,98.60
2019-01-21T18:05:29.627Z,98.30
2019-01-21T18:07:58.794Z,98.70
2019-01-21T18:10:28.026Z,98.60
2019-01-21T18:12:58.303Z,98.70
2019-01-21T18:15:27.794Z,98.60
2019-01-21T18:17:58.076Z,98.70
2019-01-21T18:20:27.606Z,98.90
2019-01-21T18:22:56.956Z,99.00
2019-01-21T18:25:26.522Z,98.60
2019-01-21T18:27:55.975Z,98.80
2019-01-21T18:30:27.425Z,98.80
2019-01-21T18:32:56.611Z,98.60
2019-01-21T18:35:26.012Z,98.80
2019-01-21T18:37:56.589Z,98.90
2019-01-21T18:40:26.139Z,99.00
2019-01-21T18:42:55.873Z,98.40
2019-01-21T18:45:27.367Z,98.40
2019-01-21T18:47:56.668Z,98.90
2019-01-21T18:50:26.281Z,99.40
2019-01-21T18:53:00.575Z,99.70
2019-01-21T18:55:27.439Z,99.80
2019-01-21T18:57:57.403Z,99.80
2019-01-21T19:00:27.566Z,99.80
2019-01-21T19:02:57.094Z,99.80
2019-01-21T19:05:26.251Z,99.80
2019-01-21T19:07:55.776Z,99.80
2019-01-21T19:10:25.339Z,99.80
2019-01-21T19:12:54.615Z,99.80
2019-01-21T19:15:29.588Z,99.80
2019-01-21T19:17:58.859Z,99.80
2019-01-21T19:20:28.299Z,99.80
2019-01-21T19:22:57.590Z,99.80
2019-01-21T19:25:26.918Z,99.80
2019-01-21T19:27:56.487Z,99.80
2019-01-21T19:30:27.658Z,99.80
2019-01-21T19:32:56.983Z,99.80
2019-01-21T19:35:32.202Z,99.80
2019-01-21T19:38:03.871Z,99.80
2019-01-21T19:40:33.330Z,99.80
2019-01-21T19:43:02.635Z,99.80
2019-01-21T19:45:31.839Z,99.80
2019-01-21T19:48:01.170Z,99.80
2019-01-21T19:50:30.756Z,99.80
2019-01-21T19:53:00.099Z,99.80
2019-01-21T19:55:32.530Z,99.80
2019-01-21T19:58:04.077Z,99.80
2019-01-21T20:00:33.383Z,99.80
2019-01-21T20:03:02.644Z,99.80
2019-01-21T20:05:32.274Z,99.80
2019-01-21T20:08:01.571Z,99.80
2019-01-21T20:10:31.232Z,99.80
2019-01-21T20:13:00.544Z,99.80
2019-01-21T20:15:29.982Z,99.80
2019-01-21T20:17:59.582Z,99.80
2019-01-21T20:20:31.649Z,99.80
2019-01-21T20:23:00.946Z,99.80
2019-01-21T20:25:30.265Z,99.80
2019-01-21T20:27:59.624Z,99.80
2019-01-21T20:30:29.624Z,99.80
2019-01-21T20:32:59.249Z,99.80
2019-01-21T20:35:28.604Z,99.80
2019-01-21T20:37:58.205Z,99.80
2019-01-21T20:40:28.019Z,99.80
2019-01-21T20:42:58.423Z,99.80
2019-01-21T20:45:27.873Z,99.80
2019-01-21T20:47:57.127Z,99.80
2019-01-21T20:50:28.633Z,99.80
2019-01-21T20:52:57.955Z,99.80
2019-01-21T20:55:27.573Z,99.80
2019-01-21T20:57:57.201Z,99.80
2019-01-21T21:00:30.694Z,99.80
2019-01-21T21:03:02.856Z,99.80
2019-01-21T21:05:32.015Z,99.80
2019-01-21T21:08:02.802Z,99.80
2019-01-21T21:10:33.132Z,99.80
2019-01-21T21:13:02.295Z,99.80
2019-01-21T21:15:32.936Z,99.80
2019-01-21T21:18:05.267Z,99.80
2019-01-21T21:20:34.797Z,99.80
2019-01-21T21:23:04.087Z,99.80
2019-01-21T21:25:33.481Z,99.80
2019-01-21T21:28:05.256Z,99.80
2019-01-21T21:30:34.668Z,99.80
2019-01-21T21:33:04.755Z,99.80
2019-01-21T21:35:34.117Z,99.80
2019-01-21T21:38:06.122Z,99.80
2019-01-21T21:40:35.367Z,99.80
2019-01-21T21:43:04.562Z,99.80
2019-01-21T21:45:34.150Z,99.80
2019-01-21T21:48:03.766Z,99.80
2019-01-21T21:50:33.597Z,99.80
2019-01-21T21:53:02.954Z,99.80
2019-01-21T21:55:32.285Z,99.80
2019-01-21T21:58:01.514Z,99.80
2019-01-21T22:00:30.837Z,99.80
2019-01-21T22:03:00.081Z,99.80
2019-01-21T22:05:29.591Z,99.80
2019-01-21T22:07:58.715Z,99.80
2019-01-21T22:10:29.624Z,99.80
2019-01-21T22:12:59.750Z,99.80
2019-01-21T22:15:29.373Z,99.80
2019-01-21T22:17:59.714Z,99.80
2019-01-21T22:20:28.928Z,99.80
2019-01-21T22:22:58.187Z,99.80
2019-01-21T22:25:27.600Z,99.80
2019-01-21T22:27:56.819Z,99.80
2019-01-21T22:30:28.203Z,99.80
2019-01-21T22:32:57.532Z,99.80
2019-01-21T22:35:26.956Z,99.80
2019-01-21T22:37:56.318Z,99.80
2019-01-21T22:40:25.684Z,99.80
2019-01-21T22:42:55.084Z,99.80
2019-01-21T22:45:25.153Z,99.80
2019-01-21T22:47:54.427Z,99.80
2019-01-21T22:50:23.700Z,99.80
2019-01-21T22:52:52.949Z,99.80
2019-01-21T22:55:22.262Z,99.80
2019-01-21T22:57:51.963Z,99.80
2019-01-21T23:00:50.602Z,99.80
2019-01-21T23:03:20.205Z,99.80
2019-01-21T23:05:49.519Z,99.80
2019-01-21T23:08:18.901Z,99.80
2019-01-21T23:10:48.316Z,99.80
2019-01-21T23:13:18.172Z,99.80
2019-01-21T23:15:48.638Z,99.80
2019-01-21T23:18:18.108Z,99.80
2019-01-21T23:20:47.897Z,99.80
2019-01-21T23:23:22.880Z,99.80
2019-01-21T23:25:52.510Z,99.80
2019-01-21T23:28:22.190Z,99.80
2019-01-21T23:30:51.468Z,99.80
2019-01-21T23:33:21.267Z,99.80
2019-01-21T23:35:50.626Z,99.80
2019-01-21T23:38:20.203Z,99.80
2019-01-21T23:40:50.225Z,99.80
2019-01-21T23:43:23.009Z,99.80
2019-01-21T23:45:52.616Z,99.80
2019-01-21T23:48:28.047Z,99.80
2019-01-21T23:50:58.698Z,99.80
2019-01-21T23:53:28.804Z,99.80
2019-01-21T23:55:58.657Z,99.80
2019-01-21T23:58:28.103Z,99.80
